Time;durP1;ratioP1;P1;durP2;ratioP2;P2;SDS_P1;SDS_P2;PMS_P1;PMS_P2;Temp;Humidity;BMP_temperature;BMP_pressure;BME280_temperature;BME280_humidity;BME280_pressure;Samples;Min_cycle;Max_cycle;Signal;HPM_P1;HPM_P2
2023/02/05 00:00:05;;;;;;;12.13;4.90;;;2.30;99.90;;;;;;5013728;28;20202;-72
2023/02/05 00:02:31;;;;;;;7.20;4.23;;;2.30;99.90;;;;;;5014318;28;20297;-73
2023/02/05 00:04:56;;;;;;;15.10;5.20;;;2.30;99.90;;;;;;5021791;28;20524;-74
2023/02/05 00:07:22;;;;;;;7.97;4.90;;;2.40;99.90;;;;;;5013730;28;20509;-72
2023/02/05 00:09:48;;;;;;;16.33;4.90;;;2.40;99.90;;;;;;4995967;28;20184;-71
2023/02/05 00:12:13;;;;;;;13.53;5.93;;;2.40;99.90;;;;;;5013711;28;20293;-73
2023/02/05 00:14:39;;;;;;;16.30;7.40;;;2.40;99.90;;;;;;5013464;28;20657;-72
2023/02/05 00:17:04;;;;;;;14.33;6.20;;;2.40;99.90;;;;;;5013114;28;20582;-73
2023/02/05 00:19:30;;;;;;;15.03;6.93;;;2.40;99.90;;;;;;5013670;28;20239;-73
2023/02/05 00:21:55;;;;;;;10.63;6.07;;;2.50;99.90;;;;;;5013339;28;20212;-72
2023/02/05 00:24:21;;;;;;;12.57;6.37;;;2.50;99.90;;;;;;5017445;28;20193;-72
2023/02/05 00:26:46;;;;;;;13.10;7.10;;;2.50;99.90;;;;;;5016778;28;20212;-73
2023/02/05 00:29:11;;;;;;;18.67;7.30;;;2.50;99.90;;;;;;4995704;28;20185;-72
2023/02/05 00:31:37;;;;;;;20.13;7.30;;;2.60;99.90;;;;;;5013157;28;20221;-73
2023/02/05 00:34:03;;;;;;;11.70;6.60;;;2.60;99.90;;;;;;5012925;28;20695;-73
2023/02/05 00:36:28;;;;;;;12.60;6.40;;;2.60;99.90;;;;;;5013220;28;20202;-74
2023/02/05 00:38:54;;;;;;;15.77;7.47;;;2.60;99.90;;;;;;5013260;28;20195;-72
2023/02/05 00:41:19;;;;;;;17.77;7.90;;;2.60;99.90;;;;;;5013033;28;20268;-72
2023/02/05 00:43:45;;;;;;;20.80;8.40;;;2.60;99.90;;;;;;5013185;28;20276;-73
2023/02/05 00:46:12;;;;;;;18.43;8.37;;;2.60;99.90;;;;;;5012504;28;20231;-72
2023/02/05 00:48:38;;;;;;;15.73;9.30;;;2.70;99.90;;;;;;5013599;28;20264;-72
2023/02/05 00:51:04;;;;;;;18.87;8.80;;;2.70;99.90;;;;;;5012784;28;20540;-73
2023/02/05 00:53:30;;;;;;;18.17;8.30;;;2.80;99.90;;;;;;5013113;28;20863;-73
2023/02/05 00:55:55;;;;;;;16.00;8.70;;;2.80;99.90;;;;;;5012817;28;20202;-74
2023/02/05 00:58:21;;;;;;;14.63;8.57;;;2.80;99.90;;;;;;4995519;28;20449;-72
2023/02/05 01:00:48;;;;;;;18.93;10.43;;;2.80;99.90;;;;;;5012891;28;20209;-72
2023/02/05 01:03:14;;;;;;;17.90;8.80;;;2.80;99.90;;;;;;5012315;28;20568;-73
2023/02/05 01:05:40;;;;;;;17.97;8.53;;;2.90;99.90;;;;;;5012751;28;20752;-72
2023/02/05 01:08:07;;;;;;;18.43;8.47;;;3.00;99.90;;;;;;5012387;28;20220;-72
2023/02/05 01:10:33;;;;;;;23.70;9.97;;;3.00;99.90;;;;;;5012666;28;20455;-74
2023/02/05 01:12:58;;;;;;;14.13;8.23;;;2.90;99.90;;;;;;5012560;28;20451;-72
2023/02/05 01:15:24;;;;;;;20.27;9.70;;;3.00;99.90;;;;;;5012175;28;20479;-71
2023/02/05 01:17:49;;;;;;;14.33;8.37;;;3.00;99.90;;;;;;5012567;28;20193;-72
2023/02/05 01:20:16;;;;;;;13.50;8.20;;;3.00;99.90;;;;;;5012265;28;20193;-73
2023/02/05 01:22:41;;;;;;;17.10;7.90;;;3.00;99.90;;;;;;5012249;28;20212;-72
2023/02/05 01:25:08;;;;;;;25.17;7.67;;;2.90;99.90;;;;;;5011909;28;20443;-72
2023/02/05 01:27:35;;;;;;;16.20;8.50;;;2.90;99.90;;;;;;5012355;28;20229;-73
2023/02/05 01:30:00;;;;;;;16.20;8.87;;;2.90;99.90;;;;;;5011961;28;20426;-73
2023/02/05 01:32:27;;;;;;;11.30;7.30;;;2.90;99.90;;;;;;5011986;28;20500;-73
2023/02/05 01:34:53;;;;;;;17.03;8.10;;;2.90;99.90;;;;;;5011445;28;20449;-72
2023/02/05 01:37:18;;;;;;;13.37;7.57;;;2.90;99.90;;;;;;5011355;28;20465;-72
2023/02/05 01:39:44;;;;;;;15.27;7.30;;;2.80;99.90;;;;;;5012188;28;20576;-72
2023/02/05 01:42:25;;;;;;;13.77;7.30;;;2.80;99.90;;;;;;5012130;28;20249;-73
2023/02/05 01:45:21;;;;;;;13.60;7.83;;;2.80;99.90;;;;;;5012040;28;20229;-74
2023/02/05 01:47:47;;;;;;;14.03;7.90;;;2.80;99.90;;;;;;5008043;28;20469;-73
2023/02/05 01:50:14;;;;;;;14.73;8.40;;;2.80;99.90;;;;;;5011675;28;20439;-74
2023/02/05 01:52:40;;;;;;;18.90;8.30;;;2.70;99.90;;;;;;5011839;28;20514;-71
2023/02/05 01:55:07;;;;;;;17.50;9.23;;;2.70;99.90;;;;;;5011683;28;20461;-72
2023/02/05 01:57:34;;;;;;;14.90;9.03;;;2.70;99.90;;;;;;5012036;28;20269;-72
2023/02/05 01:59:59;;;;;;;16.53;9.47;;;2.70;99.90;;;;;;5011557;28;20806;-73
2023/02/05 03:33:33;;;;;;;23.77;9.60;;;2.90;99.90;;;;;;4992314;28;20520;-72
2023/02/05 03:36:46;;;;;;;11.27;8.60;;;2.90;99.90;;;;;;4953012;28;20442;-75
2023/02/05 03:39:31;;;;;;;17.27;8.70;;;2.90;99.90;;;;;;4953744;28;20439;-72
2023/02/05 03:42:12;;;;;;;20.97;10.13;;;3.00;99.90;;;;;;4988990;28;20460;-72
2023/02/05 03:44:56;;;;;;;11.63;9.73;;;3.00;99.90;;;;;;4994304;28;20433;-73
2023/02/05 03:47:54;;;;;;;12.23;8.90;;;2.90;99.90;;;;;;4993262;28;20480;-73
2023/02/05 03:50:23;;;;;;;13.30;7.70;;;2.90;99.90;;;;;;4993199;28;20439;-72
2023/02/05 03:53:02;;;;;;;13.70;8.23;;;2.90;99.90;;;;;;4994555;28;20417;-73
2023/02/05 03:55:33;;;;;;;18.87;8.67;;;2.80;99.90;;;;;;4994190;28;20782;-72
2023/02/05 03:58:18;;;;;;;12.57;8.33;;;2.80;99.90;;;;;;4994023;28;20429;-73
2023/02/05 04:00:44;;;;;;;14.63;8.47;;;2.70;99.90;;;;;;4988626;28;20464;-73
2023/02/05 04:03:10;;;;;;;11.67;7.77;;;2.60;99.90;;;;;;4994211;28;20821;-72
2023/02/05 04:05:36;;;;;;;13.83;8.50;;;2.60;99.90;;;;;;4994335;28;20436;-73
2023/02/05 04:08:01;;;;;;;14.73;8.17;;;2.50;99.90;;;;;;4994322;28;20215;-71
2023/02/05 04:10:27;;;;;;;8.90;7.70;;;2.40;99.90;;;;;;4986548;28;20188;-73
2023/02/05 04:12:52;;;;;;;11.50;8.00;;;2.40;99.90;;;;;;4994107;28;20224;-73
2023/02/05 04:15:18;;;;;;;15.97;8.80;;;2.20;99.90;;;;;;4993897;28;20190;-74
2023/02/05 04:17:43;;;;;;;11.83;7.30;;;2.10;99.90;;;;;;4993971;28;20189;-74
2023/02/05 04:20:09;;;;;;;18.33;7.97;;;2.00;99.90;;;;;;4993925;28;20254;-72
2023/02/05 04:22:35;;;;;;;16.43;7.83;;;2.00;99.90;;;;;;4992505;28;20280;-72
2023/02/05 04:25:00;;;;;;;13.40;7.80;;;1.90;99.90;;;;;;4993809;28;20436;-73
2023/02/05 04:27:26;;;;;;;13.43;8.03;;;1.80;99.90;;;;;;4993706;28;20289;-73
2023/02/05 04:29:51;;;;;;;21.33;9.23;;;1.80;99.90;;;;;;4994340;28;20202;-73
2023/02/05 04:32:17;;;;;;;13.80;9.20;;;1.70;99.90;;;;;;4993424;28;20228;-72
2023/02/05 04:34:42;;;;;;;16.30;8.60;;;1.60;99.90;;;;;;4993530;28;20191;-75
2023/02/05 04:37:08;;;;;;;12.63;7.97;;;1.60;99.90;;;;;;4993806;28;20903;-72
2023/02/05 04:39:33;;;;;;;23.63;9.43;;;1.50;99.90;;;;;;4993711;28;20284;-72
2023/02/05 04:42:00;;;;;;;17.47;7.70;;;1.50;99.90;;;;;;4991288;28;20225;-75
2023/02/05 04:44:26;;;;;;;12.73;8.70;;;1.40;99.90;;;;;;4993635;28;20182;-73
2023/02/05 04:46:52;;;;;;;17.90;9.23;;;1.40;99.90;;;;;;4993547;28;20590;-72
2023/02/05 04:49:17;;;;;;;10.03;7.20;;;1.40;99.90;;;;;;4993504;28;20444;-73
2023/02/05 04:51:43;;;;;;;8.30;7.30;;;1.40;99.90;;;;;;4993947;28;20222;-72
2023/02/05 04:54:08;;;;;;;14.33;7.43;;;1.30;99.90;;;;;;4993452;28;20199;-72
2023/02/05 04:56:34;;;;;;;15.03;8.57;;;1.30;99.90;;;;;;4993778;28;20247;-72
2023/02/05 04:58:59;;;;;;;11.60;8.40;;;1.20;99.90;;;;;;4993677;28;20196;-72
2023/02/05 05:01:25;;;;;;;13.43;6.77;;;1.20;99.90;;;;;;4993351;28;20698;-73
2023/02/05 05:03:50;;;;;;;12.30;7.47;;;1.20;99.90;;;;;;4993681;28;20548;-73
2023/02/05 05:06:17;;;;;;;18.00;8.27;;;1.20;99.90;;;;;;4993120;28;20601;-73
2023/02/05 05:08:43;;;;;;;12.20;7.53;;;1.20;99.90;;;;;;4993701;28;20205;-73
2023/02/05 05:11:11;;;;;;;11.20;7.70;;;1.20;99.90;;;;;;4992757;28;20650;-74
2023/02/05 05:13:37;;;;;;;12.17;7.20;;;1.20;99.90;;;;;;4993492;28;20193;-75
2023/02/05 05:16:04;;;;;;;14.20;7.43;;;1.20;99.90;;;;;;4993813;28;20486;-74
2023/02/05 05:18:30;;;;;;;14.67;8.20;;;1.20;99.90;;;;;;4993430;28;20491;-72
2023/02/05 05:20:56;;;;;;;28.00;8.90;;;1.20;99.90;;;;;;4992753;28;20490;-72
2023/02/05 05:23:21;;;;;;;12.07;7.47;;;1.20;99.90;;;;;;4992558;28;20859;-73
2023/02/05 05:25:47;;;;;;;18.20;9.83;;;1.30;99.90;;;;;;4992745;28;20673;-73
2023/02/05 05:28:15;;;;;;;14.73;8.47;;;1.30;99.90;;;;;;4992619;28;20220;-72
2023/02/05 05:30:43;;;;;;;11.27;7.90;;;1.30;99.90;;;;;;4992554;28;20447;-73
2023/02/05 05:33:09;;;;;;;12.20;7.63;;;1.30;99.90;;;;;;4992213;28;20986;-71
2023/02/05 05:35:35;;;;;;;10.17;7.80;;;1.30;99.90;;;;;;4992588;28;20441;-73
2023/02/05 05:38:01;;;;;;;8.50;7.20;;;1.40;99.90;;;;;;4992576;28;20441;-73
2023/02/05 05:45:57;;;;;;;12.63;6.80;;;1.50;99.90;;;;;;4992180;28;20524;-73
2023/02/05 05:48:23;;;;;;;13.97;6.47;;;1.50;99.90;;;;;;4992173;28;20557;-75
2023/02/05 05:50:48;;;;;;;15.47;6.77;;;1.50;99.90;;;;;;4992067;28;20218;-73
2023/02/05 05:53:14;;;;;;;6.90;5.90;;;1.50;99.90;;;;;;4992077;28;20207;-71
2023/02/05 05:55:39;;;;;;;12.33;6.33;;;1.50;99.90;;;;;;4991973;28;20198;-72
2023/02/05 05:58:05;;;;;;;14.53;6.80;;;1.60;99.90;;;;;;4992200;28;20660;-72
2023/02/05 06:00:30;;;;;;;14.13;6.53;;;1.60;99.90;;;;;;4990850;28;20196;-72
2023/02/05 06:02:56;;;;;;;17.50;7.53;;;1.70;99.90;;;;;;4992141;28;20250;-72
2023/02/05 06:05:21;;;;;;;14.03;6.70;;;1.70;99.90;;;;;;4991783;28;20656;-72
2023/02/05 06:07:47;;;;;;;12.07;7.73;;;1.70;99.90;;;;;;4991858;28;20220;-71
2023/02/05 06:10:12;;;;;;;11.23;6.70;;;1.80;99.90;;;;;;4991723;28;20253;-71
2023/02/05 06:12:38;;;;;;;17.30;8.07;;;1.80;99.90;;;;;;4991855;28;20749;-73
2023/02/05 06:15:04;;;;;;;14.07;7.60;;;1.80;99.90;;;;;;4991600;28;20194;-72
2023/02/05 06:17:29;;;;;;;13.03;6.60;;;1.80;99.90;;;;;;4991554;28;20662;-73
2023/02/05 06:19:55;;;;;;;16.20;7.83;;;1.80;99.90;;;;;;4990494;28;20435;-72
2023/02/05 06:22:20;;;;;;;14.00;7.97;;;1.80;99.90;;;;;;4990979;28;20212;-72
2023/02/05 06:24:46;;;;;;;12.23;7.83;;;1.70;99.90;;;;;;4991670;28;20613;-72
2023/02/05 06:27:11;;;;;;;10.03;7.20;;;1.70;99.90;;;;;;4991583;28;20692;-72
2023/02/05 06:29:37;;;;;;;18.67;6.83;;;1.80;99.90;;;;;;4991999;28;20244;-72
2023/02/05 06:32:03;;;;;;;16.63;6.80;;;1.80;99.90;;;;;;4990162;28;20262;-70
2023/02/05 06:34:28;;;;;;;13.23;6.60;;;1.80;99.90;;;;;;4991569;28;20556;-71
2023/02/05 06:36:54;;;;;;;16.77;7.80;;;1.90;99.90;;;;;;4992080;28;20207;-71
2023/02/05 06:39:20;;;;;;;22.93;7.03;;;1.90;99.90;;;;;;4991978;28;20271;-72
2023/02/05 06:41:45;;;;;;;12.90;6.83;;;2.00;99.90;;;;;;4993674;28;20456;-72
2023/02/05 06:44:11;;;;;;;11.47;7.27;;;2.00;99.90;;;;;;4992587;28;20200;-70
2023/02/05 06:46:36;;;;;;;13.23;7.53;;;2.00;99.90;;;;;;4991668;28;20190;-70
2023/02/05 06:49:02;;;;;;;13.90;8.43;;;2.00;99.90;;;;;;4991864;28;20658;-70
2023/02/05 06:51:27;;;;;;;13.93;7.63;;;2.00;99.90;;;;;;4991512;28;20240;-69
2023/02/05 06:53:56;;;;;;;20.03;7.43;;;2.00;99.90;;;;;;4991263;28;20197;-70
2023/02/05 06:56:24;;;;;;;13.13;8.00;;;2.00;99.90;;;;;;4991777;28;20185;-71
2023/02/05 06:58:49;;;;;;;20.73;9.03;;;2.10;99.90;;;;;;4991286;28;20506;-71
2023/02/05 07:01:15;;;;;;;9.23;7.00;;;2.10;99.90;;;;;;4990923;28;20453;-71
2023/02/05 07:03:41;;;;;;;12.03;7.73;;;2.20;99.90;;;;;;4991688;28;20186;-71
2023/02/05 07:06:07;;;;;;;14.77;8.03;;;2.20;99.90;;;;;;4991589;28;20497;-71
2023/02/05 07:08:33;;;;;;;19.07;8.30;;;2.20;99.90;;;;;;4991643;28;20305;-70
2023/02/05 07:10:59;;;;;;;17.07;8.27;;;2.30;99.90;;;;;;4991345;28;20450;-71
2023/02/05 07:13:24;;;;;;;16.43;8.03;;;2.30;99.90;;;;;;4989853;28;20433;-71
2023/02/05 07:15:50;;;;;;;16.97;7.30;;;2.30;99.90;;;;;;4991841;28;20661;-71
2023/02/05 07:18:15;;;;;;;14.83;7.13;;;2.30;99.90;;;;;;4991675;28;20270;-71
2023/02/05 07:20:41;;;;;;;13.50;6.33;;;2.40;99.90;;;;;;4991600;28;20219;-71
2023/02/05 07:23:07;;;;;;;9.57;6.20;;;2.40;99.90;;;;;;4991072;28;20192;-71
2023/02/05 07:25:36;;;;;;;10.90;6.83;;;2.40;99.90;;;;;;4990959;28;20201;-72
2023/02/05 07:28:03;;;;;;;11.23;7.00;;;2.40;99.90;;;;;;4991461;28;20306;-71
2023/02/05 07:30:29;;;;;;;12.97;6.67;;;2.50;99.90;;;;;;4991160;28;20436;-71
2023/02/05 07:32:54;;;;;;;20.33;7.10;;;2.50;99.90;;;;;;4992027;28;20804;-71
2023/02/05 07:35:20;;;;;;;21.37;7.10;;;2.50;99.90;;;;;;4994857;28;20651;-71
2023/02/05 07:37:45;;;;;;;10.77;7.17;;;2.50;99.90;;;;;;4994739;28;20196;-71
2023/02/05 07:40:11;;;;;;;15.03;8.00;;;2.50;99.90;;;;;;4994931;28;20225;-71
2023/02/05 07:42:36;;;;;;;17.00;7.90;;;2.50;99.90;;;;;;4994874;28;20301;-71
2023/02/05 07:45:02;;;;;;;13.60;6.93;;;2.50;99.90;;;;;;4994601;28;20195;-71
2023/02/05 07:47:28;;;;;;;13.93;8.00;;;2.50;99.90;;;;;;4994512;28;20234;-71
2023/02/05 07:49:53;;;;;;;18.17;7.80;;;2.50;99.90;;;;;;4994659;28;20681;-71
2023/02/05 07:52:19;;;;;;;10.47;6.80;;;2.60;99.90;;;;;;4994242;28;20214;-71
2023/02/05 07:54:44;;;;;;;7.90;6.50;;;2.60;99.90;;;;;;4994552;28;20180;-71
2023/02/05 07:57:10;;;;;;;17.50;7.83;;;2.60;99.90;;;;;;4994322;28;20201;-72
2023/02/05 07:59:35;;;;;;;18.50;8.83;;;2.70;99.90;;;;;;4994578;28;20201;-70
2023/02/05 08:02:01;;;;;;;13.30;7.73;;;2.80;99.90;;;;;;4994137;28;20714;-72
2023/02/05 08:04:26;;;;;;;16.73;7.80;;;2.80;99.90;;;;;;4993922;28;20198;-72
2023/02/05 08:06:52;;;;;;;21.20;8.00;;;2.90;99.90;;;;;;4993872;28;20211;-71
2023/02/05 08:09:17;;;;;;;15.10;7.77;;;2.90;99.90;;;;;;4994198;28;20186;-70
2023/02/05 08:11:43;;;;;;;19.13;6.93;;;3.00;99.90;;;;;;4993897;28;20255;-71
2023/02/05 08:14:08;;;;;;;13.13;7.20;;;3.10;99.90;;;;;;4993955;28;20187;-70
2023/02/05 08:16:34;;;;;;;14.57;7.87;;;3.10;99.90;;;;;;4993784;28;20201;-71
2023/02/05 08:18:59;;;;;;;12.63;7.90;;;3.10;99.90;;;;;;4992574;28;20194;-72
2023/02/05 08:21:25;;;;;;;12.80;7.40;;;3.20;99.90;;;;;;4993780;28;20257;-72
2023/02/05 08:23:51;;;;;;;11.20;7.70;;;3.20;99.90;;;;;;4995121;28;20194;-72
2023/02/05 08:26:17;;;;;;;13.90;8.10;;;3.20;99.90;;;;;;4994878;28;20186;-69
2023/02/05 08:28:43;;;;;;;16.30;8.70;;;3.30;99.90;;;;;;4985556;28;20290;-72
2023/02/05 08:31:14;;;;;;;20.90;10.50;;;3.30;99.90;;;;;;4993966;28;20548;-72
2023/02/05 08:33:39;;;;;;;17.33;7.73;;;3.30;99.90;;;;;;4993527;28;20773;-71
2023/02/05 08:36:06;;;;;;;20.20;9.20;;;3.40;99.90;;;;;;4993587;28;20527;-71
2023/02/05 08:38:31;;;;;;;17.10;11.60;;;3.50;99.90;;;;;;4993612;28;20195;-70
2023/02/05 08:40:57;;;;;;;13.17;9.87;;;3.50;99.90;;;;;;4994046;28;20461;-71
2023/02/05 08:43:22;;;;;;;15.40;9.30;;;3.50;99.90;;;;;;4993320;28;20576;-70
2023/02/05 08:45:48;;;;;;;15.37;10.70;;;3.50;99.90;;;;;;4992821;28;20195;-71
2023/02/05 08:48:14;;;;;;;24.90;10.13;;;3.50;99.90;;;;;;4993998;28;20632;-71
2023/02/05 08:50:39;;;;;;;17.90;9.77;;;3.50;99.90;;;;;;4993261;28;20226;-73
2023/02/05 08:53:06;;;;;;;20.33;10.20;;;3.50;99.90;;;;;;4993505;28;20201;-71
2023/02/05 08:55:32;;;;;;;25.90;11.20;;;3.60;99.90;;;;;;4992999;28;20195;-71
2023/02/05 08:57:57;;;;;;;22.90;10.80;;;3.60;99.90;;;;;;4993823;28;20904;-72
2023/02/05 09:00:23;;;;;;;17.37;10.17;;;3.70;99.90;;;;;;4993122;28;20487;-71
2023/02/05 09:02:49;;;;;;;17.57;10.83;;;3.70;99.90;;;;;;4993240;28;20273;-71
2023/02/05 09:05:14;;;;;;;20.57;11.90;;;3.70;99.90;;;;;;4992920;28;20551;-71
2023/02/05 09:07:40;;;;;;;23.83;10.97;;;3.70;99.90;;;;;;4993026;28;20211;-73
2023/02/05 09:10:08;;;;;;;18.37;11.93;;;3.80;99.90;;;;;;4993486;28;20204;-71
2023/02/05 09:12:34;;;;;;;23.83;12.83;;;3.90;99.90;;;;;;4992855;28;20446;-71
2023/02/05 09:14:59;;;;;;;17.53;10.60;;;3.90;99.90;;;;;;4993483;28;20547;-72
2023/02/05 09:17:25;;;;;;;17.53;10.90;;;3.90;99.90;;;;;;4993066;28;20193;-73
2023/02/05 09:19:50;;;;;;;21.27;9.93;;;3.90;99.90;;;;;;4992839;28;20194;-71
2023/02/05 09:22:17;;;;;;;16.43;10.23;;;4.00;99.90;;;;;;4993124;28;20223;-71
2023/02/05 09:24:42;;;;;;;24.90;10.80;;;4.00;99.90;;;;;;4992700;28;20286;-72
2023/02/05 09:27:08;;;;;;;23.27;10.80;;;3.90;99.90;;;;;;4992647;28;20627;-72
2023/02/05 09:29:33;;;;;;;16.80;9.93;;;3.80;99.90;;;;;;4992515;28;20190;-72
2023/02/05 09:31:59;;;;;;;18.40;10.80;;;3.80;99.90;;;;;;4992299;28;20251;-72
2023/02/05 09:34:24;;;;;;;17.60;11.00;;;3.80;99.90;;;;;;4992245;28;20191;-72
2023/02/05 09:36:50;;;;;;;19.07;13.20;;;3.80;99.90;;;;;;4992219;28;20607;-73
2023/02/05 09:39:15;;;;;;;22.10;12.80;;;3.80;99.90;;;;;;4992500;28;20196;-72
2023/02/05 09:42:02;;;;;;;32.57;15.00;;;3.70;99.90;;;;;;4992041;28;20207;-73
2023/02/05 09:44:53;;;;;;;43.13;15.40;;;3.80;99.90;;;;;;4992132;28;20591;-72
2023/02/05 09:47:25;;;;;;;35.33;12.70;;;3.70;99.90;;;;;;4992246;28;20971;-72
2023/02/05 09:50:17;;;;;;;15.57;10.40;;;3.80;99.90;;;;;;4992190;28;20784;-72
2023/02/05 09:52:48;;;;;;;14.50;8.60;;;3.80;99.90;;;;;;4992404;28;20437;-71
2023/02/05 09:55:17;;;;;;;30.60;10.83;;;3.80;99.90;;;;;;4992146;28;20937;-71
2023/02/05 09:57:43;;;;;;;224.73;27.27;;;3.80;99.90;;;;;;4991027;28;20425;-71
2023/02/05 10:00:42;;;;;;;54.57;11.17;;;3.80;99.90;;;;;;4992347;28;20431;-72
2023/02/05 10:03:20;;;;;;;13.43;8.40;;;3.80;99.90;;;;;;4987491;28;20434;-72
2023/02/05 10:06:04;;;;;;;20.10;8.90;;;3.90;99.90;;;;;;4991621;28;20422;-72
2023/02/05 10:08:39;;;;;;;19.50;9.13;;;3.90;99.90;;;;;;4991898;28;20552;-72
2023/02/05 10:11:17;;;;;;;22.27;8.70;;;3.90;99.90;;;;;;4992040;28;20450;-72
2023/02/05 10:13:46;;;;;;;21.43;10.70;;;4.00;99.90;;;;;;4992269;28;20436;-72
2023/02/05 10:16:44;;;;;;;27.93;12.73;;;4.10;99.90;;;;;;4991264;28;20462;-72
2023/02/05 10:19:24;;;;;;;23.00;12.67;;;4.10;99.90;;;;;;4992180;28;20899;-72
2023/02/05 10:22:11;;;;;;;24.87;13.03;;;4.10;99.90;;;;;;4984450;28;20438;-72
2023/02/05 10:24:52;;;;;;;19.70;12.20;;;4.10;99.90;;;;;;4991488;28;20431;-72
2023/02/05 10:27:23;;;;;;;25.00;12.17;;;4.00;99.90;;;;;;4991867;28;20474;-71
2023/02/05 10:30:29;;;;;;;27.33;13.83;;;4.10;99.90;;;;;;4984093;28;20427;-71
2023/02/05 10:32:57;;;;;;;40.43;11.37;;;4.20;99.90;;;;;;4955316;28;20531;-71
2023/02/05 10:35:35;;;;;;;142.90;85.37;;;4.20;99.90;;;;;;4991271;28;20540;-72
2023/02/05 10:38:04;;;;;;;56.50;20.43;;;4.30;99.90;;;;;;4985139;28;20435;-71
2023/02/05 10:40:38;;;;;;;1999.90;999.90;;;4.40;99.90;;;;;;4991386;28;20429;-72
2023/02/05 10:43:21;;;;;;;745.70;222.47;;;4.50;99.90;;;;;;4993181;28;20469;-72
2023/02/05 10:45:48;;;;;;;1999.90;999.90;;;4.50;99.90;;;;;;4992944;28;20419;-72
2023/02/05 10:48:35;;;;;;;1999.90;999.90;;;4.60;99.90;;;;;;4991487;28;20466;-71
2023/02/05 10:51:08;;;;;;;871.40;180.30;;;4.70;99.90;;;;;;4991290;28;20959;-71
2023/02/05 10:53:35;;;;;;;341.73;207.53;;;4.80;99.90;;;;;;4989929;28;20434;-71
2023/02/05 10:56:02;;;;;;;98.17;53.20;;;4.80;99.90;;;;;;4991312;28;20438;-71
2023/02/05 10:58:38;;;;;;;19.93;9.37;;;4.90;99.90;;;;;;4991272;28;20496;-71
2023/02/05 11:01:09;;;;;;;20.03;11.30;;;5.00;99.90;;;;;;4991391;28;20454;-71
2023/02/05 11:03:36;;;;;;;19.87;11.30;;;5.00;99.90;;;;;;4991137;28;20450;-71
2023/02/05 11:06:06;;;;;;;303.23;115.13;;;5.00;99.90;;;;;;4991360;28;20993;-72
2023/02/05 11:08:38;;;;;;;115.57;34.93;;;5.00;99.90;;;;;;4992787;28;20546;-71
2023/02/05 11:11:05;;;;;;;19.03;10.73;;;4.90;99.90;;;;;;4995264;28;20570;-71
2023/02/05 11:13:34;;;;;;;18.80;11.03;;;4.80;99.90;;;;;;4995893;28;20443;-72
2023/02/05 11:16:04;;;;;;;809.30;460.40;;;4.80;99.90;;;;;;4995151;28;20476;-72
2023/02/05 11:18:36;;;;;;;1999.90;999.90;;;4.80;99.90;;;;;;4994876;28;20460;-71
2023/02/05 11:21:04;;;;;;;155.17;100.17;;;4.80;99.90;;;;;;4993582;28;20523;-73
2023/02/05 11:23:32;;;;;;;1999.90;999.90;;;4.80;99.90;;;;;;4994629;28;20480;-72
2023/02/05 11:26:00;;;;;;;1999.90;999.90;;;4.80;99.90;;;;;;4994820;28;21004;-72
2023/02/05 11:28:28;;;;;;;1999.90;999.90;;;4.70;99.90;;;;;;4994829;28;20465;-72
2023/02/05 11:30:54;;;;;;;789.93;424.07;;;4.70;99.90;;;;;;4994569;28;20538;-72
2023/02/05 11:33:25;;;;;;;1999.90;999.90;;;4.70;99.90;;;;;;4994724;28;20523;-72
2023/02/05 11:36:19;;;;;;;1999.90;999.90;;;4.80;99.90;;;;;;4994338;28;20188;-71
2023/02/05 11:38:47;;;;;;;1999.90;999.90;;;4.80;99.90;;;;;;4992513;28;21010;-73
2023/02/05 11:41:31;;;;;;;1377.43;685.40;;;4.90;99.90;;;;;;4994729;28;20452;-71
2023/02/05 11:43:59;;;;;;;20.57;12.10;;;4.90;99.90;;;;;;4994313;28;20529;-71
2023/02/05 11:46:27;;;;;;;23.03;12.70;;;5.10;99.90;;;;;;4994552;28;20494;-72
2023/02/05 11:49:01;;;;;;;23.60;12.57;;;5.10;99.90;;;;;;4994515;28;21059;-72
2023/02/05 11:51:34;;;;;;;26.90;12.33;;;5.10;99.90;;;;;;4994781;28;20472;-72
2023/02/05 11:54:03;;;;;;;19.67;13.50;;;5.20;99.90;;;;;;4987692;28;20459;-71
2023/02/05 11:56:29;;;;;;;20.00;13.87;;;5.30;99.90;;;;;;4994564;28;20936;-70
2023/02/05 11:59:00;;;;;;;14.87;10.00;;;5.30;99.90;;;;;;4994298;28;20437;-71
2023/02/05 12:01:31;;;;;;;23.53;12.33;;;5.30;99.90;;;;;;4994168;28;20448;-70
2023/02/05 12:03:59;;;;;;;18.80;12.70;;;5.30;99.90;;;;;;4987094;28;20795;-73
2023/02/05 12:07:04;;;;;;;22.10;13.03;;;5.40;99.90;;;;;;4994472;28;20506;-71
2023/02/05 12:09:30;;;;;;;21.60;14.00;;;5.40;99.90;;;;;;4949709;28;20590;-69
2023/02/05 12:12:17;;;;;;;17.47;12.23;;;5.40;99.90;;;;;;4985330;28;20451;-71
2023/02/05 12:14:54;;;;;;;25.40;13.03;;;5.40;99.90;;;;;;4994203;28;20183;-71
2023/02/05 12:17:29;;;;;;;24.40;13.87;;;5.40;99.90;;;;;;4994288;28;20532;-71
2023/02/05 12:20:10;;;;;;;22.90;14.00;;;5.40;99.90;;;;;;4993177;28;20468;-71
2023/02/05 12:23:05;;;;;;;22.60;13.50;;;5.40;99.90;;;;;;4994169;28;20446;-71
2023/02/05 12:25:57;;;;;;;20.93;13.17;;;5.50;99.90;;;;;;4968441;28;20994;-69
2023/02/05 12:28:57;;;;;;;19.80;12.17;;;5.50;99.90;;;;;;4989940;28;20478;-71
2023/02/05 12:31:37;;;;;;;212.73;25.23;;;5.40;99.90;;;;;;4993730;28;20956;-71
2023/02/05 12:34:29;;;;;;;19.73;12.17;;;5.50;99.90;;;;;;4993649;28;20797;-71
2023/02/05 12:37:04;;;;;;;28.33;12.70;;;5.40;99.90;;;;;;4993471;28;20426;-71
2023/02/05 12:39:38;;;;;;;16.77;10.63;;;5.30;99.90;;;;;;4993804;28;20765;-73
2023/02/05 12:42:06;;;;;;;24.77;13.00;;;5.20;99.90;;;;;;4986829;28;20453;-71
2023/02/05 12:45:01;;;;;;;100.13;90.50;;;5.20;99.90;;;;;;4993792;28;20435;-70
2023/02/05 12:48:06;;;;;;;168.70;37.03;;;5.20;99.90;;;;;;4978249;28;21043;-71
2023/02/05 12:50:34;;;;;;;20.93;12.50;;;5.20;99.90;;;;;;4974011;28;20440;-68
2023/02/05 12:53:21;;;;;;;16.67;9.17;;;5.20;99.90;;;;;;4985972;28;20432;-72
2023/02/05 12:56:14;;;;;;;14.67;8.57;;;5.20;99.90;;;;;;4992924;28;20500;-71
2023/02/05 12:58:49;;;;;;;17.40;10.47;;;5.10;99.90;;;;;;4993320;28;20445;-71
2023/02/05 13:01:21;;;;;;;29.17;11.50;;;5.10;99.90;;;;;;4991928;28;20453;-71
2023/02/05 13:03:52;;;;;;;161.43;34.20;;;5.10;99.90;;;;;;4992893;28;20434;-71
2023/02/05 13:06:28;;;;;;;22.67;10.47;;;5.10;99.90;;;;;;4993660;28;20921;-71
2023/02/05 13:09:07;;;;;;;1999.90;999.90;;;5.20;99.90;;;;;;4993111;28;21006;-73
2023/02/05 13:11:57;;;;;;;1999.90;999.90;;;5.20;99.90;;;;;;4992945;28;21030;-70
2023/02/05 13:14:28;;;;;;;22.00;9.93;;;5.20;99.90;;;;;;4989129;28;20519;-73
2023/02/05 13:17:10;;;;;;;1999.90;999.90;;;5.20;99.90;;;;;;4992697;28;20418;-71
2023/02/05 13:19:39;;;;;;;37.60;10.00;;;5.10;99.90;;;;;;4992714;28;20421;-72
2023/02/05 13:28:41;;;;;;;9.00;6.60;;;5.00;99.90;;;;;;4987033;28;20470;-72
2023/02/05 13:31:21;;;;;;;16.23;6.57;;;5.00;99.90;;;;;;4993807;28;20444;-72
2023/02/05 13:33:48;;;;;;;10.83;6.33;;;4.90;99.90;;;;;;4992749;28;21013;-71
2023/02/05 13:36:23;;;;;;;1999.90;999.90;;;4.80;99.90;;;;;;4991418;28;20459;-72
2023/02/05 13:39:11;;;;;;;1999.90;999.90;;;4.90;99.90;;;;;;4992543;28;20478;-71
2023/02/05 13:41:43;;;;;;;1999.90;999.90;;;4.80;99.90;;;;;;4992126;28;20458;-72
2023/02/05 13:44:46;;;;;;;1999.90;999.90;;;4.80;99.90;;;;;;4992157;28;20442;-71
2023/02/05 13:47:49;;;;;;;106.47;16.93;;;4.70;99.90;;;;;;4992157;28;20874;-71
2023/02/05 13:50:46;;;;;;;7.20;5.30;;;4.70;99.90;;;;;;4991221;28;20488;-72
2023/02/05 13:53:25;;;;;;;10.57;5.80;;;4.60;99.90;;;;;;4985862;28;20411;-69
2023/02/05 13:56:24;;;;;;;7.97;5.70;;;4.50;99.90;;;;;;4991767;28;20435;-71
2023/02/05 13:58:54;;;;;;;25.63;7.50;;;4.50;99.90;;;;;;4991772;28;20462;-72
2023/02/05 14:01:30;;;;;;;31.40;7.17;;;4.40;99.90;;;;;;4992349;28;20992;-72
2023/02/05 14:04:00;;;;;;;26.60;5.63;;;4.40;99.90;;;;;;4991818;28;20421;-72
2023/02/05 14:06:38;;;;;;;23.90;4.77;;;4.40;99.90;;;;;;4992616;28;20427;-71
2023/02/05 14:09:17;;;;;;;19.37;4.50;;;4.30;99.90;;;;;;4984538;28;20476;-72
2023/02/05 14:11:56;;;;;;;23.20;4.47;;;4.20;99.90;;;;;;4992085;28;20539;-71
2023/02/05 14:14:29;;;;;;;646.73;313.90;;;4.10;99.90;;;;;;4992215;28;20434;-73
2023/02/05 14:17:01;;;;;;;1999.90;999.90;;;4.10;99.90;;;;;;4991567;28;20453;-71
2023/02/05 14:19:45;;;;;;;1999.90;999.90;;;4.00;99.90;;;;;;4992020;28;20939;-71
2023/02/05 14:22:32;;;;;;;1999.90;999.90;;;3.90;99.90;;;;;;4991910;28;20813;-72
2023/02/05 14:24:57;;;;;;;151.03;79.13;;;3.80;99.90;;;;;;4991431;28;20437;-72
2023/02/05 14:27:28;;;;;;;90.40;20.77;;;3.70;99.90;;;;;;4991774;28;20480;-71
2023/02/05 14:29:55;;;;;;;4.20;3.80;;;3.70;99.90;;;;;;4991557;28;20533;-71
2023/02/05 14:32:27;;;;;;;4.23;3.33;;;3.70;99.90;;;;;;4991582;28;20581;-72
2023/02/05 14:35:04;;;;;;;3.33;3.03;;;3.70;99.90;;;;;;4991772;28;20426;-72
2023/02/05 14:37:41;;;;;;;13.23;8.33;;;3.70;99.90;;;;;;4991882;28;20923;-72
2023/02/05 14:40:36;;;;;;;6.10;4.47;;;3.70;99.90;;;;;;4984316;28;20498;-72